createdAt,value
2019-03-15T00:00:54.787Z,999.4
2019-03-15T00:01:56.182Z,999.4
2019-03-15T00:02:57.712Z,999.4
2019-03-15T00:03:59.118Z,999.4
2019-03-15T00:05:00.509Z,999.3
2019-03-15T00:06:02.037Z,999.4
2019-03-15T00:07:03.434Z,999.5
2019-03-15T00:08:04.822Z,999.5
2019-03-15T00:09:06.356Z,999.4
2019-03-15T00:10:07.755Z,999.4
2019-03-15T00:11:09.443Z,999.5
2019-03-15T00:12:10.839Z,999.4
2019-03-15T00:13:12.471Z,999.5
2019-03-15T00:14:13.834Z,999.5
2019-03-15T00:15:15.249Z,999.4
2019-03-15T00:16:16.639Z,999.4
2019-03-15T00:17:19.318Z,999.5
2019-03-15T00:18:20.711Z,999.5
2019-03-15T00:19:22.402Z,999.5
2019-03-15T00:20:23.792Z,999.5
2019-03-15T00:21:25.497Z,999.5
2019-03-15T00:22:26.888Z,999.5
2019-03-15T00:23:28.290Z,999.5
2019-03-15T00:24:29.811Z,999.5
2019-03-15T00:25:31.206Z,999.5
2019-03-15T00:26:32.617Z,999.5
2019-03-15T00:27:34.158Z,999.6
2019-03-15T00:28:35.547Z,999.6
2019-03-15T00:29:36.969Z,999.7
2019-03-15T00:30:38.659Z,999.7
2019-03-15T00:31:40.056Z,999.7
2019-03-15T00:32:41.457Z,999.7
2019-03-15T00:33:43.078Z,999.7
2019-03-15T00:34:44.469Z,999.7
2019-03-15T00:35:46.108Z,999.7
2019-03-15T00:36:47.508Z,999.6
2019-03-15T00:37:49.157Z,999.7
2019-03-15T00:38:50.595Z,999.6
2019-03-15T00:39:52.238Z,999.6
2019-03-15T00:40:53.634Z,999.6
2019-03-15T00:41:55.322Z,999.6
2019-03-15T00:42:56.733Z,999.7
2019-03-15T00:43:58.201Z,999.7
2019-03-15T00:44:59.598Z,999.8
2019-03-15T00:46:01.082Z,999.8
2019-03-15T00:47:02.478Z,999.7
2019-03-15T00:48:03.897Z,999.8
2019-03-15T00:49:05.403Z,999.7
2019-03-15T00:50:06.798Z,999.8
2019-03-15T00:51:08.188Z,999.7
2019-03-15T00:52:09.724Z,999.7
2019-03-15T00:53:11.117Z,999.7
2019-03-15T00:54:12.511Z,999.7
2019-03-15T00:55:14.047Z,999.8
2019-03-15T00:56:15.418Z,999.8
2019-03-15T00:57:16.928Z,999.8
2019-03-15T00:58:18.320Z,999.8
2019-03-15T00:59:19.716Z,999.8
2019-03-15T01:00:21.247Z,999.8
2019-03-15T01:01:22.645Z,999.7
2019-03-15T01:02:24.045Z,999.8
2019-03-15T01:03:25.569Z,999.8
2019-03-15T01:04:27.001Z,999.8
2019-03-15T01:05:28.389Z,999.8
2019-03-15T01:06:29.901Z,999.9
2019-03-15T01:07:31.291Z,999.8
2019-03-15T01:08:32.683Z,999.8
2019-03-15T01:09:34.212Z,999.8
2019-03-15T01:10:35.618Z,999.8
2019-03-15T01:11:37.020Z,999.7
2019-03-15T01:12:38.534Z,999.6
2019-03-15T01:13:39.924Z,999.7
2019-03-15T01:14:41.466Z,999.6
2019-03-15T01:15:42.885Z,999.6
2019-03-15T01:16:44.499Z,999.6
2019-03-15T01:17:45.914Z,999.6
2019-03-15T01:18:47.616Z,999.5
2019-03-15T01:19:49.016Z,999.6
2019-03-15T01:20:50.670Z,999.6
2019-03-15T01:21:52.067Z,999.5
2019-03-15T01:22:53.552Z,999.5
2019-03-15T01:23:54.946Z,999.5
2019-03-15T01:24:56.431Z,999.5
2019-03-15T01:25:57.826Z,999.5
2019-03-15T01:26:59.315Z,999.5
2019-03-15T01:28:00.708Z,999.5
2019-03-15T01:29:02.102Z,999.5
2019-03-15T01:30:03.635Z,999.5
2019-03-15T01:31:05.057Z,999.5
2019-03-15T01:32:06.550Z,999.4
2019-03-15T01:33:08.162Z,999.5
2019-03-15T01:34:09.565Z,999.5
2019-03-15T01:35:10.949Z,999.5
2019-03-15T01:36:12.490Z,999.6
2019-03-15T01:37:13.882Z,999.5
2019-03-15T01:38:15.288Z,999.5
2019-03-15T01:39:16.834Z,999.5
2019-03-15T01:40:18.199Z,999.5
2019-03-15T01:41:19.690Z,999.6
2019-03-15T01:42:21.196Z,999.6
2019-03-15T01:43:22.466Z,999.6
2019-03-15T01:44:24.006Z,999.6
2019-03-15T01:45:25.403Z,999.6
2019-03-15T01:46:26.802Z,999.6
2019-03-15T01:47:28.319Z,999.5
2019-03-15T01:48:29.908Z,999.5
2019-03-15T01:49:31.121Z,999.5
2019-03-15T01:50:33.561Z,999.5
2019-03-15T01:51:34.954Z,999.5
2019-03-15T01:52:36.377Z,999.5
2019-03-15T01:53:37.993Z,999.5
2019-03-15T01:54:40.796Z,999.5
2019-03-15T01:55:42.312Z,999.5
2019-03-15T01:56:43.701Z,999.5
2019-03-15T01:57:45.190Z,999.5
2019-03-15T01:58:46.596Z,999.5
2019-03-15T01:59:48.447Z,999.5
2019-03-15T02:00:49.518Z,999.5
2019-03-15T02:01:50.911Z,999.4
2019-03-15T02:02:52.305Z,999.4
2019-03-15T02:03:53.847Z,999.5
2019-03-15T02:04:55.233Z,999.5
2019-03-15T02:05:56.919Z,999.4
2019-03-15T02:06:58.307Z,999.5
2019-03-15T02:08:00.658Z,999.5
2019-03-15T02:09:01.163Z,999.4
2019-03-15T02:10:02.680Z,999.4
2019-03-15T02:11:04.077Z,999.4
2019-03-15T02:12:05.565Z,999.4
2019-03-15T02:13:06.959Z,999.4
2019-03-15T02:14:08.352Z,999.5
2019-03-15T02:15:09.889Z,999.4
2019-03-15T02:16:11.296Z,999.4
2019-03-15T02:17:12.692Z,999.5
2019-03-15T02:18:14.208Z,999.4
2019-03-15T02:19:15.598Z,999.4
2019-03-15T02:20:16.990Z,999.5
2019-03-15T02:21:18.668Z,999.4
2019-03-15T02:22:19.889Z,999.4
2019-03-15T02:23:21.410Z,999.4
2019-03-15T02:24:22.803Z,999.4
2019-03-15T02:25:24.203Z,999.4
2019-03-15T02:26:25.732Z,999.4
2019-03-15T02:27:27.132Z,999.5
2019-03-15T02:28:28.660Z,999.4
2019-03-15T02:29:30.060Z,999.4
2019-03-15T02:30:31.457Z,999.4
2019-03-15T02:31:33.148Z,999.4
2019-03-15T02:32:34.558Z,999.3
2019-03-15T02:33:36.021Z,999.4
2019-03-15T02:34:37.413Z,999.3
2019-03-15T02:35:38.804Z,999.4
2019-03-15T02:36:40.395Z,999.5
2019-03-15T02:37:41.749Z,999.4
2019-03-15T02:38:43.140Z,999.4
2019-03-15T02:39:46.077Z,999.4
2019-03-15T02:40:46.015Z,999.2
2019-03-15T02:41:47.568Z,999.4
2019-03-15T02:42:49.183Z,999.3
2019-03-15T02:43:50.586Z,999.2
2019-03-15T02:44:52.004Z,999.4
2019-03-15T02:45:53.508Z,999.4
2019-03-15T02:46:55.281Z,999.4
2019-03-15T02:47:56.254Z,999.4
2019-03-15T02:48:57.826Z,999.4
2019-03-15T02:49:59.216Z,999.4
2019-03-15T02:51:00.618Z,999.5
2019-03-15T02:52:02.035Z,999.4
2019-03-15T02:53:03.428Z,999.4
2019-03-15T02:54:05.028Z,999.4
2019-03-15T02:55:06.425Z,999.4
2019-03-15T02:56:07.910Z,999.5
2019-03-15T02:57:09.328Z,999.4
2019-03-15T02:58:11.003Z,999.4
2019-03-15T02:59:12.395Z,999.4
2019-03-15T03:00:13.973Z,999.5
2019-03-15T03:01:54.843Z,999.4
2019-03-15T03:02:56.492Z,999.4
2019-03-15T03:04:18.441Z,999.4
2019-03-15T03:05:19.838Z,999.4
2019-03-15T03:06:21.579Z,999.4
2019-03-15T03:07:22.977Z,999.5
2019-03-15T03:08:24.617Z,999.5
2019-03-15T03:09:26.040Z,999.5
2019-03-15T03:10:29.100Z,999.5
2019-03-15T03:11:29.029Z,999.4
2019-03-15T03:12:30.548Z,999.4
2019-03-15T03:13:31.940Z,999.4
2019-03-15T03:14:33.496Z,999.4
2019-03-15T03:15:34.839Z,999.4
2019-03-15T03:16:36.241Z,999.4
2019-03-15T03:17:37.751Z,999.3
2019-03-15T03:18:39.145Z,999.4
2019-03-15T03:19:40.556Z,999.3
2019-03-15T03:20:42.075Z,999.3
2019-03-15T03:21:43.481Z,999.3
2019-03-15T03:22:44.862Z,999.3
2019-03-15T03:23:46.390Z,999.3
2019-03-15T03:24:47.790Z,999.3
2019-03-15T03:25:49.183Z,999.3
2019-03-15T03:26:50.730Z,999.3
2019-03-15T03:27:52.132Z,999.3
2019-03-15T03:28:54.036Z,999.3
2019-03-15T03:29:55.154Z,999.3
2019-03-15T03:30:56.554Z,999.3
2019-03-15T03:31:58.121Z,999.2
2019-03-15T03:32:59.516Z,999.2
2019-03-15T03:34:00.916Z,999.2
2019-03-15T03:35:02.485Z,999.1
2019-03-15T03:36:03.838Z,999.1
2019-03-15T03:37:05.323Z,999.1
2019-03-15T03:38:06.719Z,999.1
2019-03-15T03:39:08.208Z,999.2
2019-03-15T03:40:09.629Z,999.1
2019-03-15T03:41:11.026Z,999.1
2019-03-15T03:42:12.526Z,999.1
2019-03-15T03:43:13.967Z,999.0
2019-03-15T03:44:15.365Z,999.1
2019-03-15T03:45:16.895Z,999.1
2019-03-15T03:46:18.286Z,999.1
2019-03-15T03:47:19.684Z,999.1
2019-03-15T03:48:21.167Z,999.1
2019-03-15T03:49:22.557Z,999.1
2019-03-15T03:50:23.954Z,999.1
2019-03-15T03:51:25.492Z,999.1
2019-03-15T03:52:26.889Z,999.2
2019-03-15T03:53:28.283Z,999.1
2019-03-15T03:54:30.447Z,999.1
2019-03-15T03:55:31.185Z,999.1
2019-03-15T03:56:32.573Z,999.1
2019-03-15T03:57:34.131Z,999.1
2019-03-15T03:58:35.525Z,999.2
2019-03-15T03:59:37.048Z,999.1
2019-03-15T04:00:38.416Z,999.1
2019-03-15T04:01:39.816Z,999.1
2019-03-15T04:02:41.338Z,999.1
2019-03-15T04:03:42.733Z,999.1
2019-03-15T04:04:44.128Z,999.1
2019-03-15T04:05:45.655Z,999.1
2019-03-15T04:06:47.053Z,999.1
2019-03-15T04:07:48.443Z,999.1
2019-03-15T04:08:49.999Z,999.0
2019-03-15T04:10:06.475Z,999.0
2019-03-15T04:11:08.013Z,999.0
2019-03-15T04:12:09.408Z,999.0
2019-03-15T04:13:10.895Z,999.0
2019-03-15T04:14:12.292Z,998.9
2019-03-15T04:15:13.684Z,999.0
2019-03-15T04:16:15.221Z,998.9
2019-03-15T04:17:16.611Z,999.0
2019-03-15T04:18:18.011Z,999.0
2019-03-15T04:19:19.536Z,999.0
2019-03-15T04:20:20.935Z,999.0
2019-03-15T04:21:22.325Z,999.0
2019-03-15T04:22:23.859Z,998.9
2019-03-15T04:23:25.268Z,999.0
2019-03-15T04:24:26.780Z,999.0
2019-03-15T04:25:28.172Z,999.0
2019-03-15T04:26:29.594Z,999.1
2019-03-15T04:27:31.084Z,999.0
2019-03-15T04:28:32.480Z,999.0
2019-03-15T04:29:33.874Z,999.1
2019-03-15T04:30:35.408Z,999.0
2019-03-15T04:31:36.795Z,999.0
2019-03-15T04:32:38.468Z,999.1
2019-03-15T04:33:39.861Z,999.1
2019-03-15T04:34:41.357Z,999.1
2019-03-15T04:35:42.753Z,999.0
2019-03-15T04:36:44.229Z,999.0
2019-03-15T04:37:45.622Z,999.0
2019-03-15T04:38:47.109Z,999.0
2019-03-15T04:39:48.512Z,999.0
2019-03-15T04:40:49.989Z,999.0
2019-03-15T04:41:51.381Z,999.0
2019-03-15T04:42:52.778Z,999.0
2019-03-15T04:43:54.312Z,998.9
2019-03-15T04:44:55.704Z,999.0
2019-03-15T04:45:57.104Z,999.0
2019-03-15T04:46:58.636Z,999.0
2019-03-15T04:48:00.061Z,998.9
2019-03-15T04:49:01.493Z,998.8
2019-03-15T04:50:03.159Z,998.9
2019-03-15T04:51:04.557Z,998.9
2019-03-15T04:52:05.948Z,998.9
2019-03-15T04:53:07.483Z,998.9
2019-03-15T04:54:08.876Z,998.9
2019-03-15T04:55:10.362Z,998.9
2019-03-15T04:56:11.784Z,998.9
2019-03-15T04:57:13.458Z,998.8
2019-03-15T04:58:14.851Z,998.8
2019-03-15T04:59:16.331Z,998.8
2019-03-15T05:00:17.722Z,998.8
2019-03-15T05:01:19.211Z,998.8
2019-03-15T05:02:20.601Z,998.8
2019-03-15T05:03:22.096Z,998.8
2019-03-15T05:04:23.489Z,998.9
2019-03-15T05:05:24.972Z,998.9
2019-03-15T05:06:26.362Z,998.9
2019-03-15T05:07:27.756Z,998.9
2019-03-15T05:08:29.292Z,999.0
2019-03-15T05:09:30.688Z,998.9
2019-03-15T05:10:32.075Z,998.9
2019-03-15T05:11:33.614Z,998.8
2019-03-15T05:12:35.008Z,998.9
2019-03-15T05:13:36.495Z,998.8
2019-03-15T05:14:37.885Z,998.8
2019-03-15T05:15:40.407Z,998.8
2019-03-15T05:16:41.794Z,998.7
2019-03-15T05:17:43.187Z,998.7
2019-03-15T05:18:44.723Z,998.7
2019-03-15T05:19:46.118Z,998.6
2019-03-15T05:20:47.512Z,998.7
2019-03-15T05:21:49.043Z,998.6
2019-03-15T05:22:50.441Z,998.6
2019-03-15T05:23:51.830Z,998.5
2019-03-15T05:24:53.366Z,998.6
2019-03-15T05:25:54.759Z,998.5
2019-03-15T05:26:56.190Z,998.5
2019-03-15T05:27:57.686Z,998.4
2019-03-15T05:28:59.075Z,998.4
2019-03-15T05:30:00.630Z,998.4
2019-03-15T05:31:01.962Z,998.4
2019-03-15T05:32:03.358Z,998.4
2019-03-15T05:33:04.891Z,998.4
2019-03-15T05:34:06.285Z,998.4
2019-03-15T05:35:07.678Z,998.4
2019-03-15T05:36:09.215Z,998.4
2019-03-15T05:37:10.602Z,998.4
2019-03-15T05:38:12.045Z,998.5
2019-03-15T05:39:13.534Z,998.5
2019-03-15T05:40:14.929Z,998.4
2019-03-15T05:41:16.323Z,998.4
2019-03-15T05:42:17.854Z,998.4
2019-03-15T05:43:19.243Z,998.4
2019-03-15T05:44:20.640Z,998.3
2019-03-15T05:45:22.183Z,998.3
2019-03-15T05:46:23.567Z,998.3
2019-03-15T05:47:24.964Z,998.2
2019-03-15T05:48:26.504Z,998.3
2019-03-15T05:49:27.905Z,998.2
2019-03-15T05:50:29.379Z,998.3
2019-03-15T05:51:30.768Z,998.3
2019-03-15T05:52:32.259Z,998.2
2019-03-15T05:53:33.652Z,998.2
2019-03-15T05:54:35.143Z,998.2
2019-03-15T05:55:36.540Z,998.1
2019-03-15T05:56:38.033Z,998.2
2019-03-15T05:57:39.422Z,998.2
2019-03-15T05:58:40.817Z,998.2
2019-03-15T05:59:42.381Z,998.2
2019-03-15T06:00:43.777Z,998.2
2019-03-15T06:01:45.174Z,998.2
2019-03-15T06:02:46.605Z,998.2
2019-03-15T06:03:49.141Z,998.1
2019-03-15T06:04:49.545Z,998.1
2019-03-15T06:05:50.939Z,998.1
2019-03-15T06:06:52.424Z,998.1
2019-03-15T06:07:53.818Z,998.2
2019-03-15T06:08:55.307Z,998.2
2019-03-15T06:09:56.706Z,998.2
2019-03-15T06:10:58.194Z,998.2
2019-03-15T06:11:59.580Z,998.0
2019-03-15T06:13:00.981Z,998.1
2019-03-15T06:14:02.565Z,998.0
2019-03-15T06:15:03.903Z,998.0
2019-03-15T06:16:05.299Z,998.1
2019-03-15T06:17:06.835Z,998.0
2019-03-15T06:18:08.227Z,998.0
2019-03-15T06:19:09.765Z,998.0
2019-03-15T06:20:11.177Z,998.0
2019-03-15T06:21:12.844Z,998.0
2019-03-15T06:22:14.191Z,998.0
2019-03-15T06:23:16.907Z,998.0
2019-03-15T06:24:17.121Z,998.0
2019-03-15T06:25:18.676Z,997.9
2019-03-15T06:26:19.874Z,997.9
2019-03-15T06:27:21.444Z,997.9
2019-03-15T06:28:22.831Z,997.9
2019-03-15T06:29:24.233Z,997.9
2019-03-15T06:30:25.768Z,997.9
2019-03-15T06:31:27.165Z,997.9
2019-03-15T06:32:28.562Z,997.9
2019-03-15T06:33:30.085Z,998.0
2019-03-15T06:34:31.479Z,997.9
2019-03-15T06:35:32.877Z,997.9
2019-03-15T06:36:36.023Z,998.0
2019-03-15T06:37:37.423Z,997.9
2019-03-15T06:38:38.818Z,997.9
2019-03-15T06:39:40.365Z,997.9
2019-03-15T06:40:41.761Z,998.0
2019-03-15T06:41:43.159Z,998.0
2019-03-15T06:42:44.687Z,998.0
2019-03-15T06:43:46.084Z,997.9
2019-03-15T06:44:57.323Z,998.0
2019-03-15T06:45:49.010Z,998.0
2019-03-15T06:46:50.409Z,998.0
2019-03-15T06:47:51.803Z,998.0
2019-03-15T06:48:53.331Z,998.0
2019-03-15T06:49:54.726Z,997.9
2019-03-15T06:50:56.219Z,997.9
2019-03-15T06:51:57.607Z,997.9
2019-03-15T06:52:59.090Z,997.9
2019-03-15T06:54:10.915Z,998.0
2019-03-15T06:55:05.106Z,997.9
2019-03-15T06:56:03.359Z,997.9
2019-03-15T06:57:04.917Z,997.9
2019-03-15T06:58:06.320Z,997.9
2019-03-15T06:59:07.713Z,997.8
2019-03-15T07:00:09.377Z,997.7
2019-03-15T07:01:10.796Z,997.7
2019-03-15T07:02:12.193Z,997.7
2019-03-15T07:03:13.699Z,997.8
2019-03-15T07:04:15.096Z,997.6
2019-03-15T07:05:16.579Z,997.7
2019-03-15T07:06:17.974Z,997.7
2019-03-15T07:07:19.474Z,997.7
2019-03-15T07:08:20.870Z,997.7
2019-03-15T07:09:22.263Z,997.7
2019-03-15T07:10:23.800Z,997.7
2019-03-15T07:11:25.178Z,997.7
2019-03-15T07:12:26.583Z,997.7
2019-03-15T07:13:28.104Z,997.7
2019-03-15T07:14:29.499Z,997.7
2019-03-15T07:15:30.899Z,997.8
2019-03-15T07:16:32.425Z,997.7
2019-03-15T07:17:33.917Z,997.7
2019-03-15T07:18:35.461Z,997.7
2019-03-15T07:19:36.751Z,997.7
2019-03-15T07:20:38.147Z,997.6
2019-03-15T07:21:39.547Z,997.6
2019-03-15T07:22:40.970Z,997.6
2019-03-15T07:23:42.375Z,997.5
2019-03-15T07:24:44.054Z,997.5
2019-03-15T07:25:45.395Z,997.5
2019-03-15T07:26:46.790Z,997.4
2019-03-15T07:27:48.309Z,997.4
2019-03-15T07:28:49.940Z,997.4
2019-03-15T07:29:51.318Z,997.5
2019-03-15T07:30:52.797Z,997.5
2019-03-15T07:31:54.195Z,997.5
2019-03-15T07:32:56.472Z,997.5
2019-03-15T07:33:57.119Z,997.4
2019-03-15T07:34:58.516Z,997.3
2019-03-15T07:35:59.916Z,997.3
2019-03-15T07:37:01.434Z,997.3
2019-03-15T07:38:02.842Z,997.2
2019-03-15T07:39:04.238Z,997.3
2019-03-15T07:40:05.761Z,997.2
2019-03-15T07:41:07.166Z,997.2
2019-03-15T07:42:08.566Z,997.2
2019-03-15T07:43:10.081Z,997.2
2019-03-15T07:44:11.479Z,997.2
2019-03-15T07:45:12.973Z,997.2
2019-03-15T07:46:14.376Z,997.3
2019-03-15T07:47:15.844Z,997.2
2019-03-15T07:48:22.573Z,997.2
2019-03-15T07:49:18.725Z,997.3
2019-03-15T07:50:20.124Z,997.2
2019-03-15T07:51:21.614Z,997.2
2019-03-15T07:52:23.009Z,997.1
2019-03-15T07:53:24.491Z,997.2
2019-03-15T07:54:37.436Z,997.2
2019-03-15T07:55:27.375Z,997.1
2019-03-15T07:56:28.784Z,997.1
2019-03-15T07:57:30.247Z,997.1
2019-03-15T07:58:31.648Z,997.1
2019-03-15T07:59:33.144Z,997.1
2019-03-15T08:00:34.562Z,997.0
2019-03-15T08:01:36.281Z,997.0
2019-03-15T08:02:37.638Z,997.1
2019-03-15T08:03:39.302Z,997.0
2019-03-15T08:04:40.717Z,997.0
2019-03-15T08:05:42.181Z,996.9
2019-03-15T08:06:43.579Z,996.9
2019-03-15T08:07:45.742Z,996.9
2019-03-15T08:08:46.507Z,996.9
2019-03-15T08:09:51.025Z,996.8
2019-03-15T08:10:49.259Z,996.9
2019-03-15T08:11:50.823Z,996.8
2019-03-15T08:12:52.228Z,996.8
2019-03-15T08:13:53.705Z,996.9
2019-03-15T08:14:55.122Z,996.8
2019-03-15T08:15:56.589Z,996.8
2019-03-15T08:16:57.982Z,996.8
2019-03-15T08:17:59.467Z,996.8
2019-03-15T08:19:00.868Z,996.8
2019-03-15T08:20:02.285Z,996.8
2019-03-15T08:21:03.792Z,996.7
2019-03-15T08:22:05.581Z,996.7
2019-03-15T08:23:08.600Z,996.8
2019-03-15T08:24:08.521Z,996.8
2019-03-15T08:25:09.916Z,996.7
2019-03-15T08:26:11.361Z,996.7
2019-03-15T08:27:15.933Z,996.6
2019-03-15T08:28:14.272Z,996.7
2019-03-15T08:29:15.670Z,996.7
2019-03-15T08:30:17.163Z,996.7
2019-03-15T08:31:18.660Z,996.7
2019-03-15T08:32:20.043Z,996.6
2019-03-15T08:33:21.483Z,996.7
2019-03-15T08:34:22.927Z,996.5
2019-03-15T08:35:24.643Z,996.5
2019-03-15T08:36:25.807Z,996.6
2019-03-15T08:37:27.207Z,996.6
2019-03-15T08:38:28.685Z,996.6
2019-03-15T08:39:30.084Z,996.5
2019-03-15T08:40:31.569Z,996.7
2019-03-15T08:41:32.966Z,996.6
2019-03-15T08:42:34.778Z,996.7
2019-03-15T08:43:35.809Z,996.6
2019-03-15T08:44:37.328Z,996.5
2019-03-15T08:45:38.724Z,996.4
2019-03-15T08:46:40.221Z,996.4
2019-03-15T08:47:41.628Z,996.4
2019-03-15T08:48:43.044Z,996.5
2019-03-15T08:49:44.440Z,996.4
2019-03-15T08:50:45.970Z,996.4
2019-03-15T08:51:47.398Z,996.4
2019-03-15T08:52:49.056Z,996.4
2019-03-15T08:53:50.455Z,996.4
2019-03-15T08:55:04.241Z,996.4
2019-03-15T08:55:53.300Z,996.4
2019-03-15T08:56:54.819Z,996.4
2019-03-15T08:57:56.215Z,996.4
2019-03-15T08:58:57.702Z,996.4
2019-03-15T08:59:59.097Z,996.5
2019-03-15T09:01:00.583Z,996.4
2019-03-15T09:02:02.000Z,996.4
2019-03-15T09:03:03.461Z,996.4
2019-03-15T09:04:04.856Z,996.4
2019-03-15T09:05:06.380Z,996.4
2019-03-15T09:06:07.787Z,996.3
2019-03-15T09:07:09.187Z,996.4
2019-03-15T09:08:10.585Z,996.4
2019-03-15T09:09:12.117Z,996.4
2019-03-15T09:10:22.467Z,996.5
2019-03-15T09:11:14.906Z,996.5
2019-03-15T09:12:16.427Z,996.5
2019-03-15T09:13:17.831Z,996.5
2019-03-15T09:14:19.225Z,996.5
2019-03-15T09:15:20.748Z,996.5
2019-03-15T09:16:22.148Z,996.5
2019-03-15T09:17:23.629Z,996.5
2019-03-15T09:18:25.033Z,996.5
2019-03-15T09:19:26.513Z,996.5
2019-03-15T09:20:30.055Z,996.5
2019-03-15T09:21:29.268Z,996.4
2019-03-15T09:22:30.838Z,996.4
2019-03-15T09:23:32.235Z,996.4
2019-03-15T09:24:33.641Z,996.4
2019-03-15T09:25:35.153Z,996.4
2019-03-15T09:26:36.556Z,996.3
2019-03-15T09:27:38.003Z,996.4
2019-03-15T09:28:39.490Z,996.3
2019-03-15T09:29:40.888Z,996.3
2019-03-15T09:30:42.296Z,996.4
2019-03-15T09:31:48.055Z,996.4
2019-03-15T09:32:45.158Z,996.4
2019-03-15T09:33:46.565Z,996.4
2019-03-15T09:34:48.116Z,996.3
2019-03-15T09:35:49.515Z,996.3
2019-03-15T09:36:51.017Z,996.3
2019-03-15T09:37:52.519Z,996.3
2019-03-15T09:38:54.085Z,996.3
2019-03-15T09:39:55.480Z,996.3
2019-03-15T09:40:56.899Z,996.2
2019-03-15T09:41:58.405Z,996.1
2019-03-15T09:43:00.025Z,996.1
2019-03-15T09:44:01.179Z,996.1
2019-03-15T09:45:02.727Z,996.1
2019-03-15T09:46:04.128Z,996.0
2019-03-15T09:47:06.067Z,996.1
2019-03-15T09:48:07.466Z,996.1
2019-03-15T09:49:08.943Z,996.2
2019-03-15T09:50:21.477Z,996.2
2019-03-15T09:51:11.776Z,996.2
2019-03-15T09:52:13.180Z,996.2
2019-03-15T09:53:14.660Z,996.2
2019-03-15T09:54:16.144Z,996.3
2019-03-15T09:55:17.497Z,996.3
2019-03-15T09:56:18.986Z,996.2
2019-03-15T09:57:20.389Z,996.2
2019-03-15T09:58:21.814Z,996.2
2019-03-15T09:59:23.303Z,996.2
2019-03-15T10:00:24.708Z,996.3
2019-03-15T10:01:34.706Z,996.2
2019-03-15T10:02:30.688Z,996.2
2019-03-15T10:03:29.072Z,996.2
2019-03-15T10:04:30.482Z,996.2
2019-03-15T10:05:32.421Z,996.2
2019-03-15T10:06:33.807Z,996.2
2019-03-15T10:07:38.801Z,996.1
2019-03-15T10:08:36.617Z,996.3
2019-03-15T10:09:45.708Z,996.3
2019-03-15T10:10:39.494Z,996.3
2019-03-15T10:11:40.996Z,996.2
2019-03-15T10:12:42.403Z,996.3
2019-03-15T10:13:43.884Z,996.2
2019-03-15T10:14:45.286Z,996.2
2019-03-15T10:15:46.840Z,996.2
2019-03-15T10:16:48.287Z,996.2
2019-03-15T10:17:49.674Z,996.2
2019-03-15T10:18:51.075Z,996.2
2019-03-15T10:19:52.736Z,996.2
2019-03-15T10:20:54.134Z,996.2
2019-03-15T10:21:55.613Z,996.2
2019-03-15T10:23:05.581Z,996.2
2019-03-15T10:23:58.492Z,996.2
2019-03-15T10:24:59.908Z,996.2
2019-03-15T10:26:01.370Z,996.2
2019-03-15T10:27:02.767Z,996.3
2019-03-15T10:28:04.257Z,996.3
2019-03-15T10:29:15.198Z,996.3
2019-03-15T10:30:07.133Z,996.3
2019-03-15T10:31:08.532Z,996.3
2019-03-15T10:32:10.094Z,996.3
2019-03-15T10:33:11.494Z,996.2
2019-03-15T10:34:13.098Z,996.3
2019-03-15T10:35:14.503Z,996.2
2019-03-15T10:36:16.004Z,996.2
2019-03-15T10:37:17.453Z,996.1
2019-03-15T10:38:18.862Z,996.2
2019-03-15T10:39:20.260Z,996.2
2019-03-15T10:40:21.742Z,996.3
2019-03-15T10:41:23.138Z,996.3
2019-03-15T10:42:24.622Z,996.2
2019-03-15T10:43:26.021Z,996.2
2019-03-15T10:44:27.526Z,996.2
2019-03-15T10:45:28.935Z,996.2
2019-03-15T10:46:30.389Z,996.2
2019-03-15T10:47:31.786Z,996.3
2019-03-15T10:48:33.262Z,996.2
2019-03-15T10:49:34.662Z,996.3
2019-03-15T10:50:36.065Z,996.3
2019-03-15T10:51:37.586Z,996.3
2019-03-15T10:52:38.984Z,996.2
2019-03-15T10:53:40.380Z,996.3
2019-03-15T10:54:41.910Z,996.2
2019-03-15T10:55:43.309Z,996.3
2019-03-15T10:56:44.708Z,996.3
2019-03-15T10:57:46.251Z,996.3
2019-03-15T10:58:47.641Z,996.3
2019-03-15T10:59:49.112Z,996.3
2019-03-15T11:00:50.510Z,996.4
2019-03-15T11:01:51.909Z,996.3
2019-03-15T11:02:53.430Z,996.2
2019-03-15T11:03:54.848Z,996.3
2019-03-15T11:04:56.249Z,996.2
2019-03-15T11:05:57.760Z,996.3
2019-03-15T11:06:59.165Z,996.3
2019-03-15T11:08:00.586Z,996.2
2019-03-15T11:09:02.076Z,996.3
2019-03-15T11:10:03.488Z,996.3
2019-03-15T11:11:04.896Z,996.3
2019-03-15T11:12:06.392Z,996.3
2019-03-15T11:13:07.797Z,996.4
2019-03-15T11:14:09.280Z,996.4
2019-03-15T11:15:10.714Z,996.3
2019-03-15T11:16:12.161Z,996.4
2019-03-15T11:17:13.576Z,996.4
2019-03-15T11:18:15.033Z,996.4
2019-03-15T11:19:16.652Z,996.5
2019-03-15T11:20:18.442Z,996.5
2019-03-15T11:21:20.111Z,996.5
2019-03-15T11:22:21.936Z,996.5
2019-03-15T11:23:23.382Z,996.5
2019-03-15T11:24:25.119Z,996.4
2019-03-15T11:25:26.694Z,996.4
2019-03-15T11:26:28.236Z,996.4
2019-03-15T11:27:29.868Z,996.4
2019-03-15T11:28:31.353Z,996.5
2019-03-15T11:29:32.818Z,996.5
2019-03-15T11:30:34.600Z,996.5
2019-03-15T11:31:36.138Z,996.5
2019-03-15T11:32:37.795Z,996.5
2019-03-15T11:33:39.495Z,996.6
2019-03-15T11:34:41.044Z,996.6
2019-03-15T11:35:42.567Z,996.7
2019-03-15T11:36:57.353Z,996.6
2019-03-15T11:37:45.581Z,996.6
2019-03-15T11:38:47.127Z,996.6
2019-03-15T11:39:49.005Z,996.6
2019-03-15T11:40:50.508Z,996.6
2019-03-15T11:41:52.249Z,996.6
2019-03-15T11:42:53.912Z,996.6
2019-03-15T11:43:55.420Z,996.5
2019-03-15T11:44:56.963Z,996.5
2019-03-15T11:45:58.720Z,996.6
2019-03-15T11:47:00.337Z,996.5
2019-03-15T11:48:03.866Z,996.5
2019-03-15T11:49:03.539Z,996.5
2019-03-15T11:50:05.094Z,996.5
2019-03-15T11:51:06.731Z,996.4
2019-03-15T11:52:08.500Z,996.4
2019-03-15T11:53:10.081Z,996.3
2019-03-15T11:54:11.767Z,996.4
2019-03-15T11:55:13.269Z,996.4
2019-03-15T11:56:26.386Z,996.4
2019-03-15T11:57:16.480Z,996.3
2019-03-15T11:58:18.266Z,996.4
2019-03-15T11:59:19.797Z,996.4
2019-03-15T12:00:21.409Z,996.4
2019-03-15T12:01:22.934Z,996.3
2019-03-15T12:02:24.740Z,996.3
2019-03-15T12:03:26.328Z,996.3
2019-03-15T12:04:28.011Z,996.3
2019-03-15T12:05:29.607Z,996.2
2019-03-15T12:06:31.351Z,996.2
2019-03-15T12:07:33.270Z,996.3
2019-03-15T12:08:34.952Z,996.3
2019-03-15T12:09:36.687Z,996.3
2019-03-15T12:10:38.293Z,996.2
2019-03-15T12:11:39.857Z,996.2
2019-03-15T12:12:41.581Z,996.3
2019-03-15T12:13:43.142Z,996.3
2019-03-15T12:14:44.796Z,996.3
2019-03-15T12:15:46.493Z,996.4
2019-03-15T12:16:48.045Z,996.3
2019-03-15T12:17:49.805Z,996.2
2019-03-15T12:18:51.210Z,996.4
2019-03-15T12:19:52.772Z,996.3
2019-03-15T12:20:54.205Z,996.4
2019-03-15T12:22:05.810Z,996.4
2019-03-15T12:22:57.295Z,996.3
2019-03-15T12:23:58.916Z,996.3
2019-03-15T12:25:00.490Z,996.3
2019-03-15T12:26:02.053Z,996.3
2019-03-15T12:27:03.604Z,996.4
2019-03-15T12:28:05.169Z,996.3
2019-03-15T12:29:06.987Z,996.3
2019-03-15T12:30:08.467Z,996.4
2019-03-15T12:31:10.006Z,996.4
2019-03-15T12:32:11.679Z,996.4
2019-03-15T12:33:13.336Z,996.2
2019-03-15T12:34:15.020Z,996.3
2019-03-15T12:35:16.478Z,996.3
2019-03-15T12:36:18.051Z,996.4
2019-03-15T12:37:19.507Z,996.4
2019-03-15T12:38:21.161Z,996.3
2019-03-15T12:39:22.614Z,996.4
2019-03-15T12:40:24.242Z,996.4
2019-03-15T12:41:25.745Z,996.3
2019-03-15T12:42:27.570Z,996.3
2019-03-15T12:43:29.075Z,996.3
2019-03-15T12:44:30.783Z,996.3
2019-03-15T12:45:32.405Z,996.3
2019-03-15T12:46:34.182Z,996.2
2019-03-15T12:47:35.732Z,996.4
2019-03-15T12:48:37.415Z,996.3
2019-03-15T12:49:39.221Z,996.2
2019-03-15T12:50:41.098Z,996.3
2019-03-15T12:51:42.632Z,996.2
2019-03-15T12:52:47.569Z,996.2
2019-03-15T12:53:45.891Z,996.2
2019-03-15T12:54:47.399Z,996.2
2019-03-15T12:55:48.981Z,996.2
2019-03-15T12:56:53.966Z,996.2
2019-03-15T12:57:52.063Z,996.2
2019-03-15T12:58:53.889Z,996.2
2019-03-15T12:59:55.497Z,996.2
2019-03-15T13:00:57.428Z,996.2
2019-03-15T13:01:58.972Z,996.2
2019-03-15T13:03:00.781Z,996.2
2019-03-15T13:04:02.372Z,996.2
2019-03-15T13:05:04.196Z,996.2
2019-03-15T13:06:05.755Z,996.3
2019-03-15T13:07:07.416Z,996.2
2019-03-15T13:08:09.143Z,996.1
2019-03-15T13:09:10.625Z,996.1
2019-03-15T13:10:12.289Z,996.2
2019-03-15T13:11:13.802Z,996.1
2019-03-15T13:12:15.252Z,996.1
2019-03-15T13:13:16.952Z,996.0